sensor_id;sensor_type;location;lat;lon;timestamp;P1;P2;P0
76383;PMS7003;65204;48.606;7.598;2023-05-10T00:00:00;0.00;0.00;0.00
76383;PMS7003;65204;48.606;7.598;2023-05-10T00:00:31;0.00;0.00;0.00
76383;PMS7003;65204;48.606;7.598;2023-05-10T00:01:01;0.00;0.00;0.00
76383;PMS7003;65204;48.606;7.598;2023-05-10T00:01:32;0.00;0.00;0.00
76383;PMS7003;65204;48.606;7.598;2023-05-10T00:02:02;0.00;0.00;0.00
76383;PMS7003;65204;48.606;7.598;2023-05-10T00:02:33;1.50;0.00;0.00
76383;PMS7003;65204;48.606;7.598;2023-05-10T00:03:03;1.00;1.00;1.00
76383;PMS7003;65204;48.606;7.598;2023-05-10T00:03:34;0.00;0.00;0.00
76383;PMS7003;65204;48.606;7.598;2023-05-10T00:04:05;0.00;0.00;0.00
76383;PMS7003;65204;48.606;7.598;2023-05-10T00:04:35;0.00;0.00;0.00
76383;PMS7003;65204;48.606;7.598;2023-05-10T00:05:05;0.00;0.00;0.00
76383;PMS7003;65204;48.606;7.598;2023-05-10T00:05:36;0.20;0.20;0.20
76383;PMS7003;65204;48.606;7.598;2023-05-10T00:06:07;0.25;0.25;0.00
76383;PMS7003;65204;48.606;7.598;2023-05-10T00:06:37;0.00;0.00;0.00
76383;PMS7003;65204;48.606;7.598;2023-05-10T00:07:07;0.00;0.00;0.00
76383;PMS7003;65204;48.606;7.598;2023-05-10T00:07:38;0.75;0.75;0.00
76383;PMS7003;65204;48.606;7.598;2023-05-10T00:08:08;0.00;0.00;0.00
76383;PMS7003;65204;48.606;7.598;2023-05-10T00:08:39;0.00;0.00;0.00
76383;PMS7003;65204;48.606;7.598;2023-05-10T00:09:09;0.00;0.00;0.00
76383;PMS7003;65204;48.606;7.598;2023-05-10T00:09:39;0.00;0.00;0.00
76383;PMS7003;65204;48.606;7.598;2023-05-10T00:10:10;0.00;0.00;0.00
76383;PMS7003;65204;48.606;7.598;2023-05-10T00:10:41;0.00;0.00;0.00
76383;PMS7003;65204;48.606;7.598;2023-05-10T00:11:11;0.00;0.00;0.00
76383;PMS7003;65204;48.606;7.598;2023-05-10T00:11:41;0.00;0.00;0.00
76383;PMS7003;65204;48.606;7.598;2023-05-10T00:12:11;0.00;0.00;0.00
76383;PMS7003;65204;48.606;7.598;2023-05-10T00:12:42;0.00;0.00;0.00
76383;PMS7003;65204;48.606;7.598;2023-05-10T00:13:12;0.25;0.25;0.25
76383;PMS7003;65204;48.606;7.598;2023-05-10T00:13:43;0.00;0.00;0.00
76383;PMS7003;65204;48.606;7.598;2023-05-10T00:14:13;0.00;0.00;0.00
76383;PMS7003;65204;48.606;7.598;2023-05-10T00:14:43;1.00;0.00;0.00
76383;PMS7003;65204;48.606;7.598;2023-05-10T00:15:14;0.00;0.00;0.00
76383;PMS7003;65204;48.606;7.598;2023-05-10T00:15:44;0.00;0.00;0.00
76383;PMS7003;65204;48.606;7.598;2023-05-10T00:16:15;0.00;0.00;0.00
76383;PMS7003;65204;48.606;7.598;2023-05-10T00:16:45;0.00;0.00;0.00
76383;PMS7003;65204;48.606;7.598;2023-05-10T00:17:15;0.00;0.00;0.00
76383;PMS7003;65204;48.606;7.598;2023-05-10T00:17:46;0.00;0.00;0.00
76383;PMS7003;65204;48.606;7.598;2023-05-10T00:18:16;0.75;0.00;0.00
76383;PMS7003;65204;48.606;7.598;2023-05-10T00:18:46;0.00;0.00;0.00
76383;PMS7003;65204;48.606;7.598;2023-05-10T00:19:17;0.00;0.00;0.00
76383;PMS7003;65204;48.606;7.598;2023-05-10T00:19:47;0.00;0.00;0.00
76383;PMS7003;65204;48.606;7.598;2023-05-10T00:20:18;0.00;0.00;0.00
76383;PMS7003;65204;48.606;7.598;2023-05-10T00:20:48;0.00;0.00;0.00
76383;PMS7003;65204;48.606;7.598;2023-05-10T00:21:18;0.75;0.75;0.00
76383;PMS7003;65204;48.606;7.598;2023-05-10T00:21:49;0.00;0.00;0.00
76383;PMS7003;65204;48.606;7.598;2023-05-10T00:22:20;0.00;0.00;0.00
76383;PMS7003;65204;48.606;7.598;2023-05-10T00:22:50;0.00;0.00;0.00
76383;PMS7003;65204;48.606;7.598;2023-05-10T00:23:21;1.00;0.00;0.00
76383;PMS7003;65204;48.606;7.598;2023-05-10T00:23:51;0.25;0.25;0.00
76383;PMS7003;65204;48.606;7.598;2023-05-10T00:24:21;0.00;0.00;0.00
76383;PMS7003;65204;48.606;7.598;2023-05-10T00:24:52;0.00;0.00;0.00
76383;PMS7003;65204;48.606;7.598;2023-05-10T00:25:22;1.00;1.00;0.00
76383;PMS7003;65204;48.606;7.598;2023-05-10T00:25:52;0.00;0.00;0.00
76383;PMS7003;65204;48.606;7.598;2023-05-10T00:26:23;0.00;0.00;0.00
76383;PMS7003;65204;48.606;7.598;2023-05-10T00:26:53;1.00;0.00;0.00
76383;PMS7003;65204;48.606;7.598;2023-05-10T00:27:23;0.00;0.00;0.00
76383;PMS7003;65204;48.606;7.598;2023-05-10T00:27:54;0.00;0.00;0.00
76383;PMS7003;65204;48.606;7.598;2023-05-10T00:28:27;1.60;0.00;0.00
76383;PMS7003;65204;48.606;7.598;2023-05-10T00:28:58;1.40;0.00;0.00
76383;PMS7003;65204;48.606;7.598;2023-05-10T00:29:28;0.00;0.00;0.00
76383;PMS7003;65204;48.606;7.598;2023-05-10T00:29:59;0.00;0.00;0.00
76383;PMS7003;65204;48.606;7.598;2023-05-10T00:30:29;0.00;0.00;0.00
76383;PMS7003;65204;48.606;7.598;2023-05-10T00:31:00;1.75;0.00;0.00
76383;PMS7003;65204;48.606;7.598;2023-05-10T00:31:30;0.25;0.00;0.00
76383;PMS7003;65204;48.606;7.598;2023-05-10T00:32:00;0.00;0.00;0.00
76383;PMS7003;65204;48.606;7.598;2023-05-10T00:32:31;0.00;0.00;0.00
76383;PMS7003;65204;48.606;7.598;2023-05-10T00:33:01;0.00;0.00;0.00
76383;PMS7003;65204;48.606;7.598;2023-05-10T00:33:31;0.00;0.00;0.00
76383;PMS7003;65204;48.606;7.598;2023-05-10T00:34:01;0.00;0.00;0.00
76383;PMS7003;65204;48.606;7.598;2023-05-10T00:34:32;0.00;0.00;0.00
76383;PMS7003;65204;48.606;7.598;2023-05-10T00:35:03;0.00;0.00;0.00
76383;PMS7003;65204;48.606;7.598;2023-05-10T00:35:33;0.00;0.00;0.00
76383;PMS7003;65204;48.606;7.598;2023-05-10T00:36:04;0.00;0.00;0.00
76383;PMS7003;65204;48.606;7.598;2023-05-10T00:36:37;0.00;0.00;0.00
76383;PMS7003;65204;48.606;7.598;2023-05-10T00:37:07;0.00;0.00;0.00
76383;PMS7003;65204;48.606;7.598;2023-05-10T00:37:38;0.00;0.00;0.00
76383;PMS7003;65204;48.606;7.598;2023-05-10T00:38:08;0.00;0.00;0.00
76383;PMS7003;65204;48.606;7.598;2023-05-10T00:38:38;0.00;0.00;0.00
76383;PMS7003;65204;48.606;7.598;2023-05-10T00:39:09;0.00;0.00;0.00
76383;PMS7003;65204;48.606;7.598;2023-05-10T00:39:39;0.00;0.00;0.00
76383;PMS7003;65204;48.606;7.598;2023-05-10T00:40:09;0.00;0.00;0.00
76383;PMS7003;65204;48.606;7.598;2023-05-10T00:40:40;0.00;0.00;0.00
76383;PMS7003;65204;48.606;7.598;2023-05-10T00:41:11;0.00;0.00;0.00
76383;PMS7003;65204;48.606;7.598;2023-05-10T00:41:41;0.75;0.00;0.00
76383;PMS7003;65204;48.606;7.598;2023-05-10T00:42:11;0.75;0.00;0.00
76383;PMS7003;65204;48.606;7.598;2023-05-10T00:42:42;0.00;0.00;0.00
76383;PMS7003;65204;48.606;7.598;2023-05-10T00:43:12;0.00;0.00;0.00
76383;PMS7003;65204;48.606;7.598;2023-05-10T00:43:42;1.00;1.00;0.25
76383;PMS7003;65204;48.606;7.598;2023-05-10T00:44:13;0.00;0.00;0.00
76383;PMS7003;65204;48.606;7.598;2023-05-10T00:44:43;0.00;0.00;0.00
76383;PMS7003;65204;48.606;7.598;2023-05-10T00:45:13;0.00;0.00;0.00
76383;PMS7003;65204;48.606;7.598;2023-05-10T00:45:44;0.00;0.00;0.00
76383;PMS7003;65204;48.606;7.598;2023-05-10T00:46:14;0.00;0.00;0.00
76383;PMS7003;65204;48.606;7.598;2023-05-10T00:46:46;0.00;0.00;0.00
76383;PMS7003;65204;48.606;7.598;2023-05-10T00:47:17;0.00;0.00;0.00
76383;PMS7003;65204;48.606;7.598;2023-05-10T00:47:48;0.00;0.00;0.00
76383;PMS7003;65204;48.606;7.598;2023-05-10T00:48:19;0.00;0.00;0.00
76383;PMS7003;65204;48.606;7.598;2023-05-10T00:48:49;0.00;0.00;0.00
76383;PMS7003;65204;48.606;7.598;2023-05-10T00:49:20;0.00;0.00;0.00
76383;PMS7003;65204;48.606;7.598;2023-05-10T00:49:51;0.00;0.00;0.00
76383;PMS7003;65204;48.606;7.598;2023-05-10T00:50:22;0.00;0.00;0.00
76383;PMS7003;65204;48.606;7.598;2023-05-10T00:50:53;0.00;0.00;0.00
76383;PMS7003;65204;48.606;7.598;2023-05-10T00:51:23;0.00;0.00;0.00
76383;PMS7003;65204;48.606;7.598;2023-05-10T00:51:54;0.00;0.00;0.00
76383;PMS7003;65204;48.606;7.598;2023-05-10T00:52:24;0.00;0.00;0.00
76383;PMS7003;65204;48.606;7.598;2023-05-10T00:52:56;0.00;0.00;0.00
76383;PMS7003;65204;48.606;7.598;2023-05-10T00:53:27;0.00;0.00;0.00
76383;PMS7003;65204;48.606;7.598;2023-05-10T00:54:00;0.00;0.00;0.00
76383;PMS7003;65204;48.606;7.598;2023-05-10T00:54:32;0.20;0.20;0.20
76383;PMS7003;65204;48.606;7.598;2023-05-10T00:55:02;0.00;0.00;0.00
76383;PMS7003;65204;48.606;7.598;2023-05-10T00:55:34;0.00;0.00;0.00
76383;PMS7003;65204;48.606;7.598;2023-05-10T00:56:04;0.00;0.00;0.00
76383;PMS7003;65204;48.606;7.598;2023-05-10T00:56:35;1.00;1.00;1.00
76383;PMS7003;65204;48.606;7.598;2023-05-10T00:57:06;0.00;0.00;0.00
76383;PMS7003;65204;48.606;7.598;2023-05-10T00:57:36;0.50;0.00;0.00
76383;PMS7003;65204;48.606;7.598;2023-05-10T00:58:07;0.00;0.00;0.00
76383;PMS7003;65204;48.606;7.598;2023-05-10T00:58:37;0.00;0.00;0.00
76383;PMS7003;65204;48.606;7.598;2023-05-10T00:59:09;0.00;0.00;0.00
76383;PMS7003;65204;48.606;7.598;2023-05-10T00:59:39;2.00;0.00;0.00
76383;PMS7003;65204;48.606;7.598;2023-05-10T01:00:09;1.00;0.00;0.00
76383;PMS7003;65204;48.606;7.598;2023-05-10T01:00:41;0.00;0.00;0.00
76383;PMS7003;65204;48.606;7.598;2023-05-10T01:01:13;0.20;0.00;0.00
76383;PMS7003;65204;48.606;7.598;2023-05-10T01:01:44;0.25;0.25;0.25
76383;PMS7003;65204;48.606;7.598;2023-05-10T01:02:15;0.00;0.00;0.00
76383;PMS7003;65204;48.606;7.598;2023-05-10T01:02:45;2.00;0.00;0.00
76383;PMS7003;65204;48.606;7.598;2023-05-10T01:03:16;0.00;0.00;0.00
76383;PMS7003;65204;48.606;7.598;2023-05-10T01:03:47;0.25;0.25;0.25
76383;PMS7003;65204;48.606;7.598;2023-05-10T01:04:18;0.00;0.00;0.00
76383;PMS7003;65204;48.606;7.598;2023-05-10T01:04:50;0.00;0.00;0.00
76383;PMS7003;65204;48.606;7.598;2023-05-10T01:05:21;0.00;0.00;0.00
76383;PMS7003;65204;48.606;7.598;2023-05-10T01:05:52;0.00;0.00;0.00
76383;PMS7003;65204;48.606;7.598;2023-05-10T01:06:22;2.00;0.50;0.25
76383;PMS7003;65204;48.606;7.598;2023-05-10T01:06:52;0.00;0.00;0.00
76383;PMS7003;65204;48.606;7.598;2023-05-10T01:07:23;0.75;0.00;0.00
76383;PMS7003;65204;48.606;7.598;2023-05-10T01:07:53;1.00;1.00;1.00
76383;PMS7003;65204;48.606;7.598;2023-05-10T01:08:24;0.00;0.00;0.00
76383;PMS7003;65204;48.606;7.598;2023-05-10T01:08:55;0.00;0.00;0.00
76383;PMS7003;65204;48.606;7.598;2023-05-10T01:09:26;0.00;0.00;0.00
76383;PMS7003;65204;48.606;7.598;2023-05-10T01:09:57;0.20;0.20;0.00
76383;PMS7003;65204;48.606;7.598;2023-05-10T01:10:28;0.00;0.00;0.00
76383;PMS7003;65204;48.606;7.598;2023-05-10T01:10:59;0.00;0.00;0.00
76383;PMS7003;65204;48.606;7.598;2023-05-10T01:11:29;1.00;1.00;1.00
76383;PMS7003;65204;48.606;7.598;2023-05-10T01:11:59;0.25;0.25;0.00
76383;PMS7003;65204;48.606;7.598;2023-05-10T01:12:32;0.00;0.00;0.00
76383;PMS7003;65204;48.606;7.598;2023-05-10T01:13:03;0.00;0.00;0.00
76383;PMS7003;65204;48.606;7.598;2023-05-10T01:13:37;0.00;0.00;0.00
76383;PMS7003;65204;48.606;7.598;2023-05-10T01:14:09;0.00;0.00;0.00
76383;PMS7003;65204;48.606;7.598;2023-05-10T01:14:40;0.00;0.00;0.00
76383;PMS7003;65204;48.606;7.598;2023-05-10T01:15:10;0.00;0.00;0.00
76383;PMS7003;65204;48.606;7.598;2023-05-10T01:15:42;0.00;0.00;0.00
76383;PMS7003;65204;48.606;7.598;2023-05-10T01:16:12;0.00;0.00;0.00
76383;PMS7003;65204;48.606;7.598;2023-05-10T01:16:43;0.50;0.00;0.00
76383;PMS7003;65204;48.606;7.598;2023-05-10T01:17:16;0.00;0.00;0.00
76383;PMS7003;65204;48.606;7.598;2023-05-10T01:17:46;0.25;0.25;0.00
76383;PMS7003;65204;48.606;7.598;2023-05-10T01:18:18;0.00;0.00;0.00
76383;PMS7003;65204;48.606;7.598;2023-05-10T01:18:50;0.00;0.00;0.00
76383;PMS7003;65204;48.606;7.598;2023-05-10T01:19:23;0.00;0.00;0.00
76383;PMS7003;65204;48.606;7.598;2023-05-10T01:19:58;0.00;0.00;0.00
76383;PMS7003;65204;48.606;7.598;2023-05-10T01:20:30;1.00;1.00;1.00
76383;PMS7003;65204;48.606;7.598;2023-05-10T01:23:58;0.40;0.40;0.40
76383;PMS7003;65204;48.606;7.598;2023-05-10T01:27:01;0.00;0.00;0.00
76383;PMS7003;65204;48.606;7.598;2023-05-10T01:27:51;0.00;0.00;0.00
76383;PMS7003;65204;48.606;7.598;2023-05-10T01:29:29;0.00;0.00;0.00
76383;PMS7003;65204;48.606;7.598;2023-05-10T01:31:30;0.00;0.00;0.00
76383;PMS7003;65204;48.606;7.598;2023-05-10T01:32:26;0.00;0.00;0.00
76383;PMS7003;65204;48.606;7.598;2023-05-10T01:33:11;0.00;0.00;0.00
76383;PMS7003;65204;48.606;7.598;2023-05-10T01:34:02;0.00;0.00;0.00
76383;PMS7003;65204;48.606;7.598;2023-05-10T01:34:41;0.60;0.60;0.20
76383;PMS7003;65204;48.606;7.598;2023-05-10T01:36:01;0.00;0.00;0.00
76383;PMS7003;65204;48.606;7.598;2023-05-10T01:36:55;0.00;0.00;0.00
76383;PMS7003;65204;48.606;7.598;2023-05-10T01:37:57;1.60;1.00;0.80
76383;PMS7003;65204;48.606;7.598;2023-05-10T01:39:31;0.00;0.00;0.00
76383;PMS7003;65204;48.606;7.598;2023-05-10T01:41:17;0.00;0.00;0.00
76383;PMS7003;65204;48.606;7.598;2023-05-10T01:42:06;1.80;0.00;0.00
76383;PMS7003;65204;48.606;7.598;2023-05-10T01:42:42;0.00;0.00;0.00
76383;PMS7003;65204;48.606;7.598;2023-05-10T01:43:19;0.60;0.60;0.60
76383;PMS7003;65204;48.606;7.598;2023-05-10T01:44:00;0.00;0.00;0.00
76383;PMS7003;65204;48.606;7.598;2023-05-10T01:45:18;0.40;0.40;0.40
76383;PMS7003;65204;48.606;7.598;2023-05-10T01:46:42;1.00;1.00;1.00
76383;PMS7003;65204;48.606;7.598;2023-05-10T01:47:14;0.50;0.50;0.00
76383;PMS7003;65204;48.606;7.598;2023-05-10T01:47:48;0.20;0.20;0.20
76383;PMS7003;65204;48.606;7.598;2023-05-10T01:48:23;0.00;0.00;0.00
76383;PMS7003;65204;48.606;7.598;2023-05-10T01:48:57;0.00;0.00;0.00
76383;PMS7003;65204;48.606;7.598;2023-05-10T01:49:31;0.80;0.80;0.60
76383;PMS7003;65204;48.606;7.598;2023-05-10T01:50:05;0.60;0.60;0.20
76383;PMS7003;65204;48.606;7.598;2023-05-10T01:50:41;1.00;1.00;0.00
76383;PMS7003;65204;48.606;7.598;2023-05-10T01:51:17;1.00;1.00;0.40
76383;PMS7003;65204;48.606;7.598;2023-05-10T01:51:53;1.00;1.00;0.60
76383;PMS7003;65204;48.606;7.598;2023-05-10T01:52:32;0.20;0.20;0.00
76383;PMS7003;65204;48.606;7.598;2023-05-10T01:53:07;0.20;0.20;0.20
76383;PMS7003;65204;48.606;7.598;2023-05-10T01:53:40;0.80;0.80;0.20
76383;PMS7003;65204;48.606;7.598;2023-05-10T01:54:13;1.00;1.00;1.00
76383;PMS7003;65204;48.606;7.598;2023-05-10T01:54:48;0.00;0.00;0.00
76383;PMS7003;65204;48.606;7.598;2023-05-10T01:55:24;0.20;0.20;0.20
76383;PMS7003;65204;48.606;7.598;2023-05-10T01:55:57;1.00;1.00;0.80
76383;PMS7003;65204;48.606;7.598;2023-05-10T01:56:30;0.40;0.40;0.40
76383;PMS7003;65204;48.606;7.598;2023-05-10T01:57:03;1.00;1.00;0.60
76383;PMS7003;65204;48.606;7.598;2023-05-10T01:57:37;0.00;0.00;0.00
76383;PMS7003;65204;48.606;7.598;2023-05-10T01:58:11;1.00;1.00;1.00
76383;PMS7003;65204;48.606;7.598;2023-05-10T01:58:44;1.00;1.00;1.00
76383;PMS7003;65204;48.606;7.598;2023-05-10T01:59:18;0.40;0.40;0.40
76383;PMS7003;65204;48.606;7.598;2023-05-10T01:59:50;0.00;0.00;0.00
76383;PMS7003;65204;48.606;7.598;2023-05-10T02:00:21;2.00;0.80;0.60
76383;PMS7003;65204;48.606;7.598;2023-05-10T02:00:53;0.80;0.80;0.40
76383;PMS7003;65204;48.606;7.598;2023-05-10T02:01:25;0.00;0.00;0.00
76383;PMS7003;65204;48.606;7.598;2023-05-10T02:01:57;0.40;0.40;0.40
76383;PMS7003;65204;48.606;7.598;2023-05-10T02:02:29;0.20;0.20;0.20
76383;PMS7003;65204;48.606;7.598;2023-05-10T02:03:04;1.80;1.00;1.00
76383;PMS7003;65204;48.606;7.598;2023-05-10T02:03:37;0.20;0.20;0.00
76383;PMS7003;65204;48.606;7.598;2023-05-10T02:04:09;1.00;1.00;1.00
76383;PMS7003;65204;48.606;7.598;2023-05-10T02:04:42;0.20;0.20;0.20
76383;PMS7003;65204;48.606;7.598;2023-05-10T02:05:15;1.00;1.00;1.00
76383;PMS7003;65204;48.606;7.598;2023-05-10T02:05:48;1.00;1.00;1.00
76383;PMS7003;65204;48.606;7.598;2023-05-10T02:06:19;0.60;0.60;0.60
76383;PMS7003;65204;48.606;7.598;2023-05-10T02:06:52;0.20;0.20;0.00
76383;PMS7003;65204;48.606;7.598;2023-05-10T02:07:26;1.00;1.00;0.80
76383;PMS7003;65204;48.606;7.598;2023-05-10T02:07:58;0.40;0.40;0.00
76383;PMS7003;65204;48.606;7.598;2023-05-10T02:08:31;0.60;0.60;0.60
76383;PMS7003;65204;48.606;7.598;2023-05-10T02:09:05;1.00;1.00;1.00
76383;PMS7003;65204;48.606;7.598;2023-05-10T02:09:37;0.00;0.00;0.00
76383;PMS7003;65204;48.606;7.598;2023-05-10T02:10:09;1.00;1.00;1.00
76383;PMS7003;65204;48.606;7.598;2023-05-10T02:10:41;1.00;1.00;0.60
76383;PMS7003;65204;48.606;7.598;2023-05-10T02:11:13;0.60;0.60;0.60
76383;PMS7003;65204;48.606;7.598;2023-05-10T02:11:44;0.75;0.75;0.75
76383;PMS7003;65204;48.606;7.598;2023-05-10T02:12:14;0.75;0.25;0.25
76383;PMS7003;65204;48.606;7.598;2023-05-10T02:12:47;1.00;1.00;0.80
76383;PMS7003;65204;48.606;7.598;2023-05-10T02:13:18;1.20;1.20;1.00
76383;PMS7003;65204;48.606;7.598;2023-05-10T02:13:50;1.00;1.00;1.00
76383;PMS7003;65204;48.606;7.598;2023-05-10T02:14:22;0.00;0.00;0.00
76383;PMS7003;65204;48.606;7.598;2023-05-10T02:14:55;1.00;1.00;1.00
76383;PMS7003;65204;48.606;7.598;2023-05-10T02:15:29;1.00;1.00;1.00
76383;PMS7003;65204;48.606;7.598;2023-05-10T02:16:01;1.00;1.00;1.00
76383;PMS7003;65204;48.606;7.598;2023-05-10T02:16:33;0.80;0.80;0.80
76383;PMS7003;65204;48.606;7.598;2023-05-10T02:17:05;0.00;0.00;0.00
76383;PMS7003;65204;48.606;7.598;2023-05-10T02:17:38;0.40;0.40;0.20
76383;PMS7003;65204;48.606;7.598;2023-05-10T02:18:12;1.00;1.00;1.00
76383;PMS7003;65204;48.606;7.598;2023-05-10T02:18:44;1.00;1.00;1.00
76383;PMS7003;65204;48.606;7.598;2023-05-10T02:19:15;1.00;1.00;1.00
76383;PMS7003;65204;48.606;7.598;2023-05-10T02:19:47;1.80;1.00;1.00
76383;PMS7003;65204;48.606;7.598;2023-05-10T02:20:19;2.00;2.00;2.00
76383;PMS7003;65204;48.606;7.598;2023-05-10T02:20:50;2.00;2.00;1.60
76383;PMS7003;65204;48.606;7.598;2023-05-10T02:21:23;2.40;2.40;2.00
76383;PMS7003;65204;48.606;7.598;2023-05-10T02:21:55;2.20;2.00;1.60
76383;PMS7003;65204;48.606;7.598;2023-05-10T02:22:26;0.40;0.40;0.00
76383;PMS7003;65204;48.606;7.598;2023-05-10T02:22:58;2.00;2.00;1.40
76383;PMS7003;65204;48.606;7.598;2023-05-10T02:23:29;2.00;2.00;1.80
76383;PMS7003;65204;48.606;7.598;2023-05-10T02:24:01;0.00;0.00;0.00
76383;PMS7003;65204;48.606;7.598;2023-05-10T02:24:34;2.60;2.00;2.00
76383;PMS7003;65204;48.606;7.598;2023-05-10T02:25:06;1.00;1.00;1.00
76383;PMS7003;65204;48.606;7.598;2023-05-10T02:25:38;0.00;0.00;0.00
76383;PMS7003;65204;48.606;7.598;2023-05-10T02:26:10;1.80;1.60;1.40
76383;PMS7003;65204;48.606;7.598;2023-05-10T02:26:43;2.40;2.00;2.00
76383;PMS7003;65204;48.606;7.598;2023-05-10T02:27:15;3.60;2.40;2.00
76383;PMS7003;65204;48.606;7.598;2023-05-10T02:27:47;2.00;2.00;2.00
76383;PMS7003;65204;48.606;7.598;2023-05-10T02:28:18;2.00;2.00;1.00
76383;PMS7003;65204;48.606;7.598;2023-05-10T02:28:51;2.00;2.00;1.60
76383;PMS7003;65204;48.606;7.598;2023-05-10T02:29:23;2.00;2.00;2.00
76383;PMS7003;65204;48.606;7.598;2023-05-10T02:29:56;2.60;2.00;2.00
76383;PMS7003;65204;48.606;7.598;2023-05-10T02:30:28;2.20;1.00;1.00
76383;PMS7003;65204;48.606;7.598;2023-05-10T02:31:01;3.20;2.40;2.00
76383;PMS7003;65204;48.606;7.598;2023-05-10T02:31:32;3.00;3.00;2.00
76383;PMS7003;65204;48.606;7.598;2023-05-10T02:32:03;2.20;2.20;2.00
76383;PMS7003;65204;48.606;7.598;2023-05-10T02:32:34;2.80;2.80;2.20
76383;PMS7003;65204;48.606;7.598;2023-05-10T02:33:05;2.40;2.40;2.00
76383;PMS7003;65204;48.606;7.598;2023-05-10T02:33:38;2.20;2.20;2.00
76383;PMS7003;65204;48.606;7.598;2023-05-10T02:34:10;2.00;2.00;2.00
76383;PMS7003;65204;48.606;7.598;2023-05-10T02:34:41;3.00;3.00;3.00
76383;PMS7003;65204;48.606;7.598;2023-05-10T02:35:12;3.00;2.20;2.20
76383;PMS7003;65204;48.606;7.598;2023-05-10T02:35:44;3.00;3.00;2.20
76383;PMS7003;65204;48.606;7.598;2023-05-10T02:36:15;3.80;3.80;3.00
76383;PMS7003;65204;48.606;7.598;2023-05-10T02:36:46;4.60;4.20;3.00
76383;PMS7003;65204;48.606;7.598;2023-05-10T02:37:20;3.00;3.00;2.00
76383;PMS7003;65204;48.606;7.598;2023-05-10T02:37:52;3.60;3.60;3.00
76383;PMS7003;65204;48.606;7.598;2023-05-10T02:38:24;3.20;2.00;2.00
76383;PMS7003;65204;48.606;7.598;2023-05-10T02:38:56;1.40;1.40;1.20
76383;PMS7003;65204;48.606;7.598;2023-05-10T02:39:29;2.00;2.00;1.40
76383;PMS7003;65204;48.606;7.598;2023-05-10T02:40:02;2.00;2.00;2.00
76383;PMS7003;65204;48.606;7.598;2023-05-10T02:40:34;1.40;1.40;1.40
76383;PMS7003;65204;48.606;7.598;2023-05-10T02:41:07;3.00;2.00;1.60
76383;PMS7003;65204;48.606;7.598;2023-05-10T02:41:39;2.80;2.00;2.00
76383;PMS7003;65204;48.606;7.598;2023-05-10T02:42:17;2.00;2.00;1.40
76383;PMS7003;65204;48.606;7.598;2023-05-10T02:42:50;4.20;3.60;2.80
76383;PMS7003;65204;48.606;7.598;2023-05-10T02:43:24;2.80;2.40;2.00
76383;PMS7003;65204;48.606;7.598;2023-05-10T02:43:56;2.20;1.20;1.00
76383;PMS7003;65204;48.606;7.598;2023-05-10T02:44:29;3.00;2.00;1.60
76383;PMS7003;65204;48.606;7.598;2023-05-10T02:45:01;3.20;1.60;1.60
76383;PMS7003;65204;48.606;7.598;2023-05-10T02:45:37;1.00;1.00;1.00
76383;PMS7003;65204;48.606;7.598;2023-05-10T02:46:08;2.40;2.40;1.80
76383;PMS7003;65204;48.606;7.598;2023-05-10T02:46:39;1.25;1.25;1.00
76383;PMS7003;65204;48.606;7.598;2023-05-10T02:47:09;3.25;2.00;1.75
76383;PMS7003;65204;48.606;7.598;2023-05-10T02:47:40;2.00;2.00;2.00
76383;PMS7003;65204;48.606;7.598;2023-05-10T02:48:10;2.00;2.00;2.00
76383;PMS7003;65204;48.606;7.598;2023-05-10T02:48:41;2.00;2.00;2.00
76383;PMS7003;65204;48.606;7.598;2023-05-10T02:49:11;4.00;1.25;1.00
76383;PMS7003;65204;48.606;7.598;2023-05-10T02:49:42;2.25;2.25;2.00
76383;PMS7003;65204;48.606;7.598;2023-05-10T02:50:12;2.00;2.00;2.00
76383;PMS7003;65204;48.606;7.598;2023-05-10T02:50:44;2.00;2.00;1.25
76383;PMS7003;65204;48.606;7.598;2023-05-10T02:51:15;2.80;2.80;2.00
76383;PMS7003;65204;48.606;7.598;2023-05-10T02:51:49;2.40;2.40;2.00
76383;PMS7003;65204;48.606;7.598;2023-05-10T02:52:26;1.20;1.00;1.00
76383;PMS7003;65204;48.606;7.598;2023-05-10T02:53:04;1.40;1.40;1.00
76383;PMS7003;65204;48.606;7.598;2023-05-10T02:53:40;2.00;2.00;2.00
76383;PMS7003;65204;48.606;7.598;2023-05-10T02:54:20;4.00;3.00;2.00
76383;PMS7003;65204;48.606;7.598;2023-05-10T02:54:58;2.40;2.40;2.00
76383;PMS7003;65204;48.606;7.598;2023-05-10T02:55:32;1.40;1.40;1.00
76383;PMS7003;65204;48.606;7.598;2023-05-10T02:56:12;1.20;1.20;1.20
76383;PMS7003;65204;48.606;7.598;2023-05-10T02:56:50;2.00;2.00;1.80
76383;PMS7003;65204;48.606;7.598;2023-05-10T02:57:27;2.60;2.60;2.00
76383;PMS7003;65204;48.606;7.598;2023-05-10T02:58:01;1.80;1.80;1.80
76383;PMS7003;65204;48.606;7.598;2023-05-10T02:58:32;1.40;1.40;1.40
76383;PMS7003;65204;48.606;7.598;2023-05-10T02:59:03;0.00;0.00;0.00
76383;PMS7003;65204;48.606;7.598;2023-05-10T02:59:33;3.00;3.00;2.00
76383;PMS7003;65204;48.606;7.598;2023-05-10T03:00:04;2.00;2.00;2.00
76383;PMS7003;65204;48.606;7.598;2023-05-10T03:00:35;1.40;1.40;0.60
76383;PMS7003;65204;48.606;7.598;2023-05-10T03:01:06;2.25;1.25;1.00
76383;PMS7003;65204;48.606;7.598;2023-05-10T03:01:37;1.20;1.00;0.40
76383;PMS7003;65204;48.606;7.598;2023-05-10T03:02:08;1.50;1.50;1.00
76383;PMS7003;65204;48.606;7.598;2023-05-10T03:02:40;1.60;1.60;1.60
76383;PMS7003;65204;48.606;7.598;2023-05-10T03:03:11;1.40;1.40;1.40
76383;PMS7003;65204;48.606;7.598;2023-05-10T03:03:41;2.00;2.00;1.50
76383;PMS7003;65204;48.606;7.598;2023-05-10T03:04:12;3.00;1.50;1.00
76383;PMS7003;65204;48.606;7.598;2023-05-10T03:04:43;2.00;2.00;2.00
76383;PMS7003;65204;48.606;7.598;2023-05-10T03:05:13;3.50;3.50;2.75
76383;PMS7003;65204;48.606;7.598;2023-05-10T03:05:44;1.50;1.50;1.00
76383;PMS7003;65204;48.606;7.598;2023-05-10T03:06:14;1.75;1.75;1.00
76383;PMS7003;65204;48.606;7.598;2023-05-10T03:06:46;2.00;2.00;2.00
76383;PMS7003;65204;48.606;7.598;2023-05-10T03:07:16;2.00;2.00;2.00
76383;PMS7003;65204;48.606;7.598;2023-05-10T03:07:49;2.00;2.00;1.80
76383;PMS7003;65204;48.606;7.598;2023-05-10T03:08:21;2.80;2.80;2.20
76383;PMS7003;65204;48.606;7.598;2023-05-10T03:08:52;4.00;2.20;1.60
76383;PMS7003;65204;48.606;7.598;2023-05-10T03:09:22;1.25;1.25;1.25
76383;PMS7003;65204;48.606;7.598;2023-05-10T03:09:53;2.25;2.00;2.00
76383;PMS7003;65204;48.606;7.598;2023-05-10T03:10:26;2.00;2.00;2.00
76383;PMS7003;65204;48.606;7.598;2023-05-10T03:11:07;2.00;2.00;1.40
76383;PMS7003;65204;48.606;7.598;2023-05-10T03:11:56;4.00;2.80;2.00
76383;PMS7003;65204;48.606;7.598;2023-05-10T03:13:32;2.00;2.00;2.00
76383;PMS7003;65204;48.606;7.598;2023-05-10T03:14:34;2.20;2.20;2.00
76383;PMS7003;65204;48.606;7.598;2023-05-10T03:15:18;2.20;1.40;1.20
76383;PMS7003;65204;48.606;7.598;2023-05-10T03:16:08;3.80;2.00;1.80
76383;PMS7003;65204;48.606;7.598;2023-05-10T03:16:44;2.00;2.00;2.00
76383;PMS7003;65204;48.606;7.598;2023-05-10T03:17:30;2.00;2.00;2.00
76383;PMS7003;65204;48.606;7.598;2023-05-10T03:18:12;2.00;2.00;2.00
76383;PMS7003;65204;48.606;7.598;2023-05-10T03:18:50;4.80;2.00;2.00
76383;PMS7003;65204;48.606;7.598;2023-05-10T03:20:43;1.20;1.20;1.20
76383;PMS7003;65204;48.606;7.598;2023-05-10T03:21:18;2.00;2.00;2.00
76383;PMS7003;65204;48.606;7.598;2023-05-10T03:21:52;2.00;2.00;1.40
76383;PMS7003;65204;48.606;7.598;2023-05-10T03:22:25;2.00;2.00;2.00
76383;PMS7003;65204;48.606;7.598;2023-05-10T03:24:03;3.00;2.00;2.00
76383;PMS7003;65204;48.606;7.598;2023-05-10T03:24:35;2.00;2.00;1.40
76383;PMS7003;65204;48.606;7.598;2023-05-10T03:25:07;2.20;2.20;1.60
76383;PMS7003;65204;48.606;7.598;2023-05-10T03:25:40;1.40;1.40;1.20
76383;PMS7003;65204;48.606;7.598;2023-05-10T03:26:16;2.60;2.00;2.00
76383;PMS7003;65204;48.606;7.598;2023-05-10T03:26:50;2.00;2.00;2.00